sensor_id;sensor_type;location;lat;lon;timestamp;temperature;humidity
16114;DHT22;8161;-33.910;151.156;2023-06-19T00:12:07;13.70;1.00
16114;DHT22;8161;-33.910;151.156;2023-06-19T00:14:34;14.00;1.00
16114;DHT22;8161;-33.910;151.156;2023-06-19T00:17:03;13.70;1.00
16114;DHT22;8161;-33.910;151.156;2023-06-19T00:19:30;13.60;1.00
16114;DHT22;8161;-33.910;151.156;2023-06-19T00:21:59;14.20;1.00
16114;DHT22;8161;-33.910;151.156;2023-06-19T00:24:27;14.40;1.00
16114;DHT22;8161;-33.910;151.156;2023-06-19T00:26:54;14.30;1.00
16114;DHT22;8161;-33.910;151.156;2023-06-19T00:29:21;14.40;1.00
16114;DHT22;8161;-33.910;151.156;2023-06-19T00:36:43;14.60;1.00
16114;DHT22;8161;-33.910;151.156;2023-06-19T00:41:42;14.80;1.00
16114;DHT22;8161;-33.910;151.156;2023-06-19T00:44:10;15.20;1.00
16114;DHT22;8161;-33.910;151.156;2023-06-19T00:46:39;15.20;1.00
16114;DHT22;8161;-33.910;151.156;2023-06-19T00:49:07;15.40;1.00
16114;DHT22;8161;-33.910;151.156;2023-06-19T00:51:35;15.00;1.00
16114;DHT22;8161;-33.910;151.156;2023-06-19T00:58:57;15.40;1.00
16114;DHT22;8161;-33.910;151.156;2023-06-19T01:03:52;15.00;1.00
16114;DHT22;8161;-33.910;151.156;2023-06-19T01:06:23;15.70;1.00
16114;DHT22;8161;-33.910;151.156;2023-06-19T01:11:43;15.80;1.00
16114;DHT22;8161;-33.910;151.156;2023-06-19T01:16:46;15.70;1.00
16114;DHT22;8161;-33.910;151.156;2023-06-19T01:21:43;15.90;1.00
16114;DHT22;8161;-33.910;151.156;2023-06-19T01:24:12;15.90;1.00
16114;DHT22;8161;-33.910;151.156;2023-06-19T01:29:16;16.00;1.00
16114;DHT22;8161;-33.910;151.156;2023-06-19T01:31:53;16.10;1.00
16114;DHT22;8161;-33.910;151.156;2023-06-19T01:34:23;16.60;1.00
16114;DHT22;8161;-33.910;151.156;2023-06-19T01:36:53;15.80;1.00
16114;DHT22;8161;-33.910;151.156;2023-06-19T01:39:23;15.90;1.00
16114;DHT22;8161;-33.910;151.156;2023-06-19T01:41:52;16.10;1.00
16114;DHT22;8161;-33.910;151.156;2023-06-19T01:46:50;16.30;1.00
16114;DHT22;8161;-33.910;151.156;2023-06-19T01:49:18;15.90;1.00
16114;DHT22;8161;-33.910;151.156;2023-06-19T01:51:45;16.40;1.00
16114;DHT22;8161;-33.910;151.156;2023-06-19T01:54:13;16.30;1.00
16114;DHT22;8161;-33.910;151.156;2023-06-19T01:59:07;16.20;1.00
16114;DHT22;8161;-33.910;151.156;2023-06-19T02:01:34;16.70;1.00
16114;DHT22;8161;-33.910;151.156;2023-06-19T02:13:52;16.40;1.00
16114;DHT22;8161;-33.910;151.156;2023-06-19T02:16:22;16.50;1.00
16114;DHT22;8161;-33.910;151.156;2023-06-19T02:18:49;16.70;1.00
16114;DHT22;8161;-33.910;151.156;2023-06-19T02:23:47;16.30;1.00
16114;DHT22;8161;-33.910;151.156;2023-06-19T02:26:14;16.30;1.00
16114;DHT22;8161;-33.910;151.156;2023-06-19T02:28:41;17.00;1.00
16114;DHT22;8161;-33.910;151.156;2023-06-19T02:31:08;17.10;1.00
16114;DHT22;8161;-33.910;151.156;2023-06-19T02:33:36;16.90;1.00
16114;DHT22;8161;-33.910;151.156;2023-06-19T02:36:03;16.80;1.00
16114;DHT22;8161;-33.910;151.156;2023-06-19T02:40:58;17.50;1.00
16114;DHT22;8161;-33.910;151.156;2023-06-19T02:45:57;17.30;1.00
16114;DHT22;8161;-33.910;151.156;2023-06-19T02:48:30;17.00;1.00
16114;DHT22;8161;-33.910;151.156;2023-06-19T02:53:24;17.10;1.00
16114;DHT22;8161;-33.910;151.156;2023-06-19T03:00:50;17.20;1.00
16114;DHT22;8161;-33.910;151.156;2023-06-19T03:03:17;17.00;1.00
16114;DHT22;8161;-33.910;151.156;2023-06-19T03:05:44;17.30;1.00
16114;DHT22;8161;-33.910;151.156;2023-06-19T03:08:12;17.30;1.00
16114;DHT22;8161;-33.910;151.156;2023-06-19T03:10:39;17.60;1.00
16114;DHT22;8161;-33.910;151.156;2023-06-19T03:15:34;17.40;1.00
16114;DHT22;8161;-33.910;151.156;2023-06-19T03:18:01;17.90;1.00
16114;DHT22;8161;-33.910;151.156;2023-06-19T03:20:31;17.60;1.00
16114;DHT22;8161;-33.910;151.156;2023-06-19T03:22:58;17.70;1.00
16114;DHT22;8161;-33.910;151.156;2023-06-19T03:25:25;18.10;1.00
16114;DHT22;8161;-33.910;151.156;2023-06-19T03:27:56;18.20;1.00
16114;DHT22;8161;-33.910;151.156;2023-06-19T03:30:23;18.10;1.00
16114;DHT22;8161;-33.910;151.156;2023-06-19T03:37:45;18.30;1.00
16114;DHT22;8161;-33.910;151.156;2023-06-19T03:42:45;17.70;1.00
16114;DHT22;8161;-33.910;151.156;2023-06-19T03:47:42;17.90;1.00
16114;DHT22;8161;-33.910;151.156;2023-06-19T03:50:09;17.70;1.00
16114;DHT22;8161;-33.910;151.156;2023-06-19T03:52:37;17.90;1.00
16114;DHT22;8161;-33.910;151.156;2023-06-19T03:57:32;17.90;1.00
16114;DHT22;8161;-33.910;151.156;2023-06-19T03:59:59;17.80;1.00
16114;DHT22;8161;-33.910;151.156;2023-06-19T04:02:26;18.00;1.00
16114;DHT22;8161;-33.910;151.156;2023-06-19T04:07:23;18.30;1.00
16114;DHT22;8161;-33.910;151.156;2023-06-19T04:09:51;18.40;1.00
16114;DHT22;8161;-33.910;151.156;2023-06-19T04:12:18;18.00;99.90
16114;DHT22;8161;-33.910;151.156;2023-06-19T04:14:45;18.00;1.00
16114;DHT22;8161;-33.910;151.156;2023-06-19T04:19:39;18.90;1.00
16114;DHT22;8161;-33.910;151.156;2023-06-19T04:22:07;18.20;1.00
16114;DHT22;8161;-33.910;151.156;2023-06-19T04:27:04;18.60;1.00
16114;DHT22;8161;-33.910;151.156;2023-06-19T04:29:34;18.10;1.00
16114;DHT22;8161;-33.910;151.156;2023-06-19T04:32:05;18.60;1.00
16114;DHT22;8161;-33.910;151.156;2023-06-19T04:34:38;18.50;1.00
16114;DHT22;8161;-33.910;151.156;2023-06-19T04:39:34;18.40;1.00
16114;DHT22;8161;-33.910;151.156;2023-06-19T04:42:01;18.30;1.00
16114;DHT22;8161;-33.910;151.156;2023-06-19T04:44:31;18.50;1.00
16114;DHT22;8161;-33.910;151.156;2023-06-19T04:47:00;18.70;1.00
16114;DHT22;8161;-33.910;151.156;2023-06-19T04:49:31;18.60;1.00
16114;DHT22;8161;-33.910;151.156;2023-06-19T04:54:26;18.40;1.00
16114;DHT22;8161;-33.910;151.156;2023-06-19T04:56:53;19.10;1.00
16114;DHT22;8161;-33.910;151.156;2023-06-19T04:59:24;18.70;1.00
16114;DHT22;8161;-33.910;151.156;2023-06-19T05:04:21;18.20;1.00
16114;DHT22;8161;-33.910;151.156;2023-06-19T05:06:49;18.90;1.00
16114;DHT22;8161;-33.910;151.156;2023-06-19T05:09:17;18.60;1.00
16114;DHT22;8161;-33.910;151.156;2023-06-19T05:11:44;18.30;1.00
16114;DHT22;8161;-33.910;151.156;2023-06-19T05:14:11;18.30;1.00
16114;DHT22;8161;-33.910;151.156;2023-06-19T05:16:40;18.00;1.00
16114;DHT22;8161;-33.910;151.156;2023-06-19T05:19:08;18.00;1.00
16114;DHT22;8161;-33.910;151.156;2023-06-19T05:24:03;17.80;1.00
16114;DHT22;8161;-33.910;151.156;2023-06-19T05:26:30;17.90;1.00
16114;DHT22;8161;-33.910;151.156;2023-06-19T05:51:07;17.70;1.00
16114;DHT22;8161;-33.910;151.156;2023-06-19T05:53:34;17.50;1.00
16114;DHT22;8161;-33.910;151.156;2023-06-19T05:56:02;17.10;99.90
16114;DHT22;8161;-33.910;151.156;2023-06-19T06:03:27;17.40;1.00
16114;DHT22;8161;-33.910;151.156;2023-06-19T06:08:31;16.70;1.00
16114;DHT22;8161;-33.910;151.156;2023-06-19T06:10:58;16.80;99.90
16114;DHT22;8161;-33.910;151.156;2023-06-19T06:13:26;16.60;99.90
16114;DHT22;8161;-33.910;151.156;2023-06-19T06:15:53;17.10;1.00
16114;DHT22;8161;-33.910;151.156;2023-06-19T06:18:20;17.00;1.00
16114;DHT22;8161;-33.910;151.156;2023-06-19T06:20:48;17.00;1.00
16114;DHT22;8161;-33.910;151.156;2023-06-19T06:23:15;17.10;1.00
16114;DHT22;8161;-33.910;151.156;2023-06-19T06:25:45;16.90;1.00
16114;DHT22;8161;-33.910;151.156;2023-06-19T06:28:13;16.80;1.00
16114;DHT22;8161;-33.910;151.156;2023-06-19T06:30:41;16.80;1.00
16114;DHT22;8161;-33.910;151.156;2023-06-19T06:33:08;16.90;1.00
16114;DHT22;8161;-33.910;151.156;2023-06-19T06:38:03;16.60;99.90
16114;DHT22;8161;-33.910;151.156;2023-06-19T06:40:33;16.50;1.00
16114;DHT22;8161;-33.910;151.156;2023-06-19T06:43:00;16.70;1.00
16114;DHT22;8161;-33.910;151.156;2023-06-19T06:45:27;15.80;1.00
16114;DHT22;8161;-33.910;151.156;2023-06-19T06:47:55;16.70;1.00
16114;DHT22;8161;-33.910;151.156;2023-06-19T06:50:22;16.60;1.00
16114;DHT22;8161;-33.910;151.156;2023-06-19T06:52:49;16.50;1.00
16114;DHT22;8161;-33.910;151.156;2023-06-19T06:55:17;15.90;1.00
16114;DHT22;8161;-33.910;151.156;2023-06-19T06:57:44;16.40;1.00
16114;DHT22;8161;-33.910;151.156;2023-06-19T07:00:12;16.30;1.00
16114;DHT22;8161;-33.910;151.156;2023-06-19T07:02:39;16.00;1.00
16114;DHT22;8161;-33.910;151.156;2023-06-19T07:05:10;16.50;1.00
16114;DHT22;8161;-33.910;151.156;2023-06-19T07:07:37;15.90;1.00
16114;DHT22;8161;-33.910;151.156;2023-06-19T07:12:32;16.40;1.00
16114;DHT22;8161;-33.910;151.156;2023-06-19T07:15:00;16.20;1.00
16114;DHT22;8161;-33.910;151.156;2023-06-19T07:17:30;16.10;1.00
16114;DHT22;8161;-33.910;151.156;2023-06-19T07:19:57;15.70;1.00
16114;DHT22;8161;-33.910;151.156;2023-06-19T07:22:27;15.40;1.00
16114;DHT22;8161;-33.910;151.156;2023-06-19T07:24:55;16.20;1.00
16114;DHT22;8161;-33.910;151.156;2023-06-19T07:27:22;15.40;1.00
16114;DHT22;8161;-33.910;151.156;2023-06-19T07:29:50;16.00;1.00
16114;DHT22;8161;-33.910;151.156;2023-06-19T07:32:17;15.60;1.00
16114;DHT22;8161;-33.910;151.156;2023-06-19T07:37:11;15.20;1.00
16114;DHT22;8161;-33.910;151.156;2023-06-19T07:39:48;15.70;1.00
16114;DHT22;8161;-33.910;151.156;2023-06-19T07:42:16;15.60;1.00
16114;DHT22;8161;-33.910;151.156;2023-06-19T07:47:12;15.70;1.00
16114;DHT22;8161;-33.910;151.156;2023-06-19T07:49:40;15.00;1.00
16114;DHT22;8161;-33.910;151.156;2023-06-19T07:52:07;15.90;1.00
16114;DHT22;8161;-33.910;151.156;2023-06-19T07:54:50;15.30;1.00
16114;DHT22;8161;-33.910;151.156;2023-06-19T07:59:45;15.30;1.00
16114;DHT22;8161;-33.910;151.156;2023-06-19T08:02:13;14.70;1.00
16114;DHT22;8161;-33.910;151.156;2023-06-19T08:04:43;14.80;1.00
16114;DHT22;8161;-33.910;151.156;2023-06-19T08:07:10;14.60;1.00
16114;DHT22;8161;-33.910;151.156;2023-06-19T08:14:32;14.50;1.00
16114;DHT22;8161;-33.910;151.156;2023-06-19T08:16:59;14.90;1.00
16114;DHT22;8161;-33.910;151.156;2023-06-19T08:19:26;15.00;1.00
16114;DHT22;8161;-33.910;151.156;2023-06-19T08:21:53;15.30;1.00
16114;DHT22;8161;-33.910;151.156;2023-06-19T08:24:23;15.10;1.00
16114;DHT22;8161;-33.910;151.156;2023-06-19T08:26:51;15.30;1.00
16114;DHT22;8161;-33.910;151.156;2023-06-19T08:29:22;15.00;1.00
16114;DHT22;8161;-33.910;151.156;2023-06-19T08:31:49;14.70;1.00
16114;DHT22;8161;-33.910;151.156;2023-06-19T08:34:16;15.20;1.00
16114;DHT22;8161;-33.910;151.156;2023-06-19T08:36:44;15.00;1.00
16114;DHT22;8161;-33.910;151.156;2023-06-19T08:39:11;15.10;1.00
16114;DHT22;8161;-33.910;151.156;2023-06-19T08:41:39;15.10;1.00
16114;DHT22;8161;-33.910;151.156;2023-06-19T08:44:08;15.00;1.00
16114;DHT22;8161;-33.910;151.156;2023-06-19T08:46:36;15.10;1.00
16114;DHT22;8161;-33.910;151.156;2023-06-19T08:51:32;14.60;1.00
16114;DHT22;8161;-33.910;151.156;2023-06-19T08:54:05;14.60;99.90
16114;DHT22;8161;-33.910;151.156;2023-06-19T08:56:34;14.40;1.00
16114;DHT22;8161;-33.910;151.156;2023-06-19T08:59:14;14.70;1.00
16114;DHT22;8161;-33.910;151.156;2023-06-19T09:01:48;15.00;1.00
16114;DHT22;8161;-33.910;151.156;2023-06-19T09:04:21;15.00;1.00
16114;DHT22;8161;-33.910;151.156;2023-06-19T09:06:59;14.60;1.00
16114;DHT22;8161;-33.910;151.156;2023-06-19T09:09:27;14.60;1.00
16114;DHT22;8161;-33.910;151.156;2023-06-19T09:12:03;15.10;1.00
16114;DHT22;8161;-33.910;151.156;2023-06-19T09:14:40;14.40;1.00
16114;DHT22;8161;-33.910;151.156;2023-06-19T09:17:11;15.00;1.00
16114;DHT22;8161;-33.910;151.156;2023-06-19T09:19:48;14.60;1.00
16114;DHT22;8161;-33.910;151.156;2023-06-19T09:22:18;15.10;99.90
16114;DHT22;8161;-33.910;151.156;2023-06-19T09:24:45;14.70;1.00
16114;DHT22;8161;-33.910;151.156;2023-06-19T09:27:17;14.80;1.00
16114;DHT22;8161;-33.910;151.156;2023-06-19T09:29:47;14.20;1.00
16114;DHT22;8161;-33.910;151.156;2023-06-19T09:32:24;14.60;1.00
16114;DHT22;8161;-33.910;151.156;2023-06-19T09:34:56;14.60;99.90
16114;DHT22;8161;-33.910;151.156;2023-06-19T09:39:57;14.70;1.00
16114;DHT22;8161;-33.910;151.156;2023-06-19T09:42:35;14.40;99.90
16114;DHT22;8161;-33.910;151.156;2023-06-19T09:50:06;14.50;1.00
16114;DHT22;8161;-33.910;151.156;2023-06-19T09:55:03;14.30;1.00
16114;DHT22;8161;-33.910;151.156;2023-06-19T09:57:32;14.30;1.00
16114;DHT22;8161;-33.910;151.156;2023-06-19T10:00:02;14.40;1.00
16114;DHT22;8161;-33.910;151.156;2023-06-19T10:02:45;14.20;1.00
16114;DHT22;8161;-33.910;151.156;2023-06-19T10:07:45;14.50;1.00
16114;DHT22;8161;-33.910;151.156;2023-06-19T10:10:36;13.80;1.00
16114;DHT22;8161;-33.910;151.156;2023-06-19T10:13:16;14.50;1.00
16114;DHT22;8161;-33.910;151.156;2023-06-19T10:15:45;14.10;1.00
16114;DHT22;8161;-33.910;151.156;2023-06-19T10:20:46;13.90;1.00
16114;DHT22;8161;-33.910;151.156;2023-06-19T10:23:24;14.00;1.00
16114;DHT22;8161;-33.910;151.156;2023-06-19T10:26:00;13.80;99.90
16114;DHT22;8161;-33.910;151.156;2023-06-19T10:28:32;14.40;1.00
16114;DHT22;8161;-33.910;151.156;2023-06-19T10:31:04;14.00;1.00
16114;DHT22;8161;-33.910;151.156;2023-06-19T10:33:34;14.30;1.00
16114;DHT22;8161;-33.910;151.156;2023-06-19T10:36:23;14.50;1.00
16114;DHT22;8161;-33.910;151.156;2023-06-19T10:38:52;14.60;1.00
16114;DHT22;8161;-33.910;151.156;2023-06-19T10:41:22;14.50;1.00
16114;DHT22;8161;-33.910;151.156;2023-06-19T10:44:05;13.90;1.00
16114;DHT22;8161;-33.910;151.156;2023-06-19T10:46:36;14.50;1.00
16114;DHT22;8161;-33.910;151.156;2023-06-19T10:49:05;14.60;1.00
16114;DHT22;8161;-33.910;151.156;2023-06-19T10:51:40;14.10;1.00
16114;DHT22;8161;-33.910;151.156;2023-06-19T10:54:11;14.10;1.00
16114;DHT22;8161;-33.910;151.156;2023-06-19T10:59:08;13.90;1.00
16114;DHT22;8161;-33.910;151.156;2023-06-19T11:01:48;14.10;1.00
16114;DHT22;8161;-33.910;151.156;2023-06-19T11:09:14;13.80;1.00
16114;DHT22;8161;-33.910;151.156;2023-06-19T11:11:45;13.70;1.00
16114;DHT22;8161;-33.910;151.156;2023-06-19T11:14:17;13.80;1.00
16114;DHT22;8161;-33.910;151.156;2023-06-19T11:16:46;14.00;1.00
16114;DHT22;8161;-33.910;151.156;2023-06-19T11:19:21;14.00;1.00
16114;DHT22;8161;-33.910;151.156;2023-06-19T11:21:53;14.30;1.00
16114;DHT22;8161;-33.910;151.156;2023-06-19T11:24:23;14.40;1.00
16114;DHT22;8161;-33.910;151.156;2023-06-19T11:26:51;13.80;1.00
16114;DHT22;8161;-33.910;151.156;2023-06-19T11:29:23;13.90;1.00
16114;DHT22;8161;-33.910;151.156;2023-06-19T11:36:47;14.30;1.00
16114;DHT22;8161;-33.910;151.156;2023-06-19T11:39:15;13.90;1.00
16114;DHT22;8161;-33.910;151.156;2023-06-19T11:41:46;13.60;1.00
16114;DHT22;8161;-33.910;151.156;2023-06-19T11:44:14;13.80;1.00
16114;DHT22;8161;-33.910;151.156;2023-06-19T11:46:43;13.50;1.00
16114;DHT22;8161;-33.910;151.156;2023-06-19T11:49:12;13.50;1.00
16114;DHT22;8161;-33.910;151.156;2023-06-19T11:51:40;13.90;99.90
16114;DHT22;8161;-33.910;151.156;2023-06-19T11:56:39;13.80;1.00
16114;DHT22;8161;-33.910;151.156;2023-06-19T12:04:03;14.10;99.90
16114;DHT22;8161;-33.910;151.156;2023-06-19T12:06:31;13.40;1.00
16114;DHT22;8161;-33.910;151.156;2023-06-19T12:16:27;13.60;1.00
16114;DHT22;8161;-33.910;151.156;2023-06-19T12:18:55;13.40;1.00
16114;DHT22;8161;-33.910;151.156;2023-06-19T12:23:52;13.80;1.00
16114;DHT22;8161;-33.910;151.156;2023-06-19T12:26:20;13.50;1.00
16114;DHT22;8161;-33.910;151.156;2023-06-19T12:31:14;13.00;1.00
16114;DHT22;8161;-33.910;151.156;2023-06-19T12:36:11;13.50;1.00
16114;DHT22;8161;-33.910;151.156;2023-06-19T12:43:36;13.40;1.00
16114;DHT22;8161;-33.910;151.156;2023-06-19T12:46:03;12.80;1.00
16114;DHT22;8161;-33.910;151.156;2023-06-19T12:50:58;13.30;1.00
16114;DHT22;8161;-33.910;151.156;2023-06-19T12:53:25;13.20;99.90
16114;DHT22;8161;-33.910;151.156;2023-06-19T12:55:59;12.90;1.00
16114;DHT22;8161;-33.910;151.156;2023-06-19T12:58:27;12.70;1.00
16114;DHT22;8161;-33.910;151.156;2023-06-19T13:00:54;13.00;99.90
16114;DHT22;8161;-33.910;151.156;2023-06-19T13:03:21;13.00;1.00
16114;DHT22;8161;-33.910;151.156;2023-06-19T13:05:49;12.40;1.00
16114;DHT22;8161;-33.910;151.156;2023-06-19T13:08:16;12.70;1.00
16114;DHT22;8161;-33.910;151.156;2023-06-19T13:10:43;12.60;99.90
16114;DHT22;8161;-33.910;151.156;2023-06-19T13:13:11;12.60;1.00
16114;DHT22;8161;-33.910;151.156;2023-06-19T13:15:38;12.60;1.00
16114;DHT22;8161;-33.910;151.156;2023-06-19T13:18:06;12.20;1.00
16114;DHT22;8161;-33.910;151.156;2023-06-19T13:20:33;12.60;1.00
16114;DHT22;8161;-33.910;151.156;2023-06-19T13:23:00;12.70;1.00
16114;DHT22;8161;-33.910;151.156;2023-06-19T13:25:28;12.50;1.00
16114;DHT22;8161;-33.910;151.156;2023-06-19T13:27:55;12.10;1.00
16114;DHT22;8161;-33.910;151.156;2023-06-19T13:30:22;12.40;1.00
16114;DHT22;8161;-33.910;151.156;2023-06-19T13:32:49;12.20;1.00
16114;DHT22;8161;-33.910;151.156;2023-06-19T13:35:17;12.30;1.00
16114;DHT22;8161;-33.910;151.156;2023-06-19T13:37:44;12.00;1.00
16114;DHT22;8161;-33.910;151.156;2023-06-19T13:42:44;12.00;1.00
16114;DHT22;8161;-33.910;151.156;2023-06-19T13:45:11;11.90;1.00
16114;DHT22;8161;-33.910;151.156;2023-06-19T13:47:38;11.90;1.00
16114;DHT22;8161;-33.910;151.156;2023-06-19T13:50:07;11.90;1.00
16114;DHT22;8161;-33.910;151.156;2023-06-19T13:52:35;11.70;1.00
16114;DHT22;8161;-33.910;151.156;2023-06-19T13:55:03;12.10;1.00
16114;DHT22;8161;-33.910;151.156;2023-06-19T13:57:30;11.80;1.00
16114;DHT22;8161;-33.910;151.156;2023-06-19T14:02:25;11.70;1.00
16114;DHT22;8161;-33.910;151.156;2023-06-19T14:04:52;11.70;1.00
16114;DHT22;8161;-33.910;151.156;2023-06-19T14:07:20;11.60;1.00
16114;DHT22;8161;-33.910;151.156;2023-06-19T14:09:49;11.80;1.00
16114;DHT22;8161;-33.910;151.156;2023-06-19T14:12:19;11.40;1.00
16114;DHT22;8161;-33.910;151.156;2023-06-19T14:14:48;11.40;1.00
16114;DHT22;8161;-33.910;151.156;2023-06-19T14:17:15;11.30;1.00
16114;DHT22;8161;-33.910;151.156;2023-06-19T14:19:42;11.70;1.00
16114;DHT22;8161;-33.910;151.156;2023-06-19T14:24:37;11.20;1.00
16114;DHT22;8161;-33.910;151.156;2023-06-19T14:29:31;11.30;1.00
16114;DHT22;8161;-33.910;151.156;2023-06-19T14:31:58;11.40;1.00
16114;DHT22;8161;-33.910;151.156;2023-06-19T14:34:29;11.10;1.00
16114;DHT22;8161;-33.910;151.156;2023-06-19T14:36:56;11.20;1.00
16114;DHT22;8161;-33.910;151.156;2023-06-19T14:39:23;11.60;1.00
16114;DHT22;8161;-33.910;151.156;2023-06-19T14:41:51;11.50;1.00
16114;DHT22;8161;-33.910;151.156;2023-06-19T14:44:18;11.50;1.00
16114;DHT22;8161;-33.910;151.156;2023-06-19T14:46:48;11.80;1.00
16114;DHT22;8161;-33.910;151.156;2023-06-19T14:49:20;11.40;1.00
16114;DHT22;8161;-33.910;151.156;2023-06-19T14:51:47;11.50;1.00
16114;DHT22;8161;-33.910;151.156;2023-06-19T14:54:15;11.40;1.00
16114;DHT22;8161;-33.910;151.156;2023-06-19T14:56:44;11.70;1.00
16114;DHT22;8161;-33.910;151.156;2023-06-19T14:59:16;11.30;1.00
16114;DHT22;8161;-33.910;151.156;2023-06-19T15:01:44;11.80;1.00
16114;DHT22;8161;-33.910;151.156;2023-06-19T15:04:11;11.80;1.00
16114;DHT22;8161;-33.910;151.156;2023-06-19T15:06:39;11.00;1.00
16114;DHT22;8161;-33.910;151.156;2023-06-19T15:09:06;11.50;1.00
16114;DHT22;8161;-33.910;151.156;2023-06-19T15:11:34;11.20;1.00
16114;DHT22;8161;-33.910;151.156;2023-06-19T15:14:02;11.10;1.00
16114;DHT22;8161;-33.910;151.156;2023-06-19T15:16:29;11.30;1.00
16114;DHT22;8161;-33.910;151.156;2023-06-19T15:21:23;11.20;1.00
16114;DHT22;8161;-33.910;151.156;2023-06-19T15:23:53;11.20;1.00
16114;DHT22;8161;-33.910;151.156;2023-06-19T15:26:23;10.70;1.00
16114;DHT22;8161;-33.910;151.156;2023-06-19T15:28:52;10.70;1.00
16114;DHT22;8161;-33.910;151.156;2023-06-19T15:31:22;11.10;1.00
16114;DHT22;8161;-33.910;151.156;2023-06-19T15:33:50;11.10;1.00
16114;DHT22;8161;-33.910;151.156;2023-06-19T15:36:20;11.50;1.00
16114;DHT22;8161;-33.910;151.156;2023-06-19T15:38:47;11.20;1.00
16114;DHT22;8161;-33.910;151.156;2023-06-19T15:41:15;11.20;1.00
16114;DHT22;8161;-33.910;151.156;2023-06-19T15:43:45;11.20;1.00
16114;DHT22;8161;-33.910;151.156;2023-06-19T15:46:14;11.30;1.00
16114;DHT22;8161;-33.910;151.156;2023-06-19T15:51:10;10.80;1.00
16114;DHT22;8161;-33.910;151.156;2023-06-19T15:53:43;10.50;1.00
16114;DHT22;8161;-33.910;151.156;2023-06-19T15:56:11;10.50;1.00
16114;DHT22;8161;-33.910;151.156;2023-06-19T15:58:38;10.90;1.00
16114;DHT22;8161;-33.910;151.156;2023-06-19T16:01:06;11.00;1.00
16114;DHT22;8161;-33.910;151.156;2023-06-19T16:03:33;10.70;1.00
16114;DHT22;8161;-33.910;151.156;2023-06-19T16:06:00;11.00;1.00
16114;DHT22;8161;-33.910;151.156;2023-06-19T16:08:27;11.10;1.00
16114;DHT22;8161;-33.910;151.156;2023-06-19T16:10:55;11.20;1.00
16114;DHT22;8161;-33.910;151.156;2023-06-19T16:13:22;10.80;1.00
16114;DHT22;8161;-33.910;151.156;2023-06-19T16:15:49;10.50;1.00
16114;DHT22;8161;-33.910;151.156;2023-06-19T16:18:20;10.60;1.00
16114;DHT22;8161;-33.910;151.156;2023-06-19T16:20:47;10.70;1.00
16114;DHT22;8161;-33.910;151.156;2023-06-19T16:28:08;10.50;1.00
16114;DHT22;8161;-33.910;151.156;2023-06-19T16:30:36;10.90;1.00
16114;DHT22;8161;-33.910;151.156;2023-06-19T16:33:06;10.60;1.00
16114;DHT22;8161;-33.910;151.156;2023-06-19T16:38:01;10.10;1.00
16114;DHT22;8161;-33.910;151.156;2023-06-19T16:40:28;10.30;1.00
16114;DHT22;8161;-33.910;151.156;2023-06-19T16:42:56;10.10;1.00
16114;DHT22;8161;-33.910;151.156;2023-06-19T16:45:25;10.20;1.00
16114;DHT22;8161;-33.910;151.156;2023-06-19T16:47:54;10.50;14.00
16114;DHT22;8161;-33.910;151.156;2023-06-19T16:50:21;9.80;52.80
16114;DHT22;8161;-33.910;151.156;2023-06-19T16:52:51;10.60;18.80
16114;DHT22;8161;-33.910;151.156;2023-06-19T16:55:19;10.20;21.40
16114;DHT22;8161;-33.910;151.156;2023-06-19T17:00:19;10.70;21.00
16114;DHT22;8161;-33.910;151.156;2023-06-19T17:02:46;10.70;27.90
16114;DHT22;8161;-33.910;151.156;2023-06-19T17:05:15;10.60;13.20
16114;DHT22;8161;-33.910;151.156;2023-06-19T17:07:42;10.00;1.00
16114;DHT22;8161;-33.910;151.156;2023-06-19T17:10:12;10.70;1.00
16114;DHT22;8161;-33.910;151.156;2023-06-19T17:12:43;10.50;1.00
16114;DHT22;8161;-33.910;151.156;2023-06-19T17:15:10;10.60;1.00
16114;DHT22;8161;-33.910;151.156;2023-06-19T17:17:38;10.50;1.00
16114;DHT22;8161;-33.910;151.156;2023-06-19T17:20:06;10.70;1.00
16114;DHT22;8161;-33.910;151.156;2023-06-19T17:22:35;9.90;1.00
16114;DHT22;8161;-33.910;151.156;2023-06-19T17:25:02;10.00;28.10
16114;DHT22;8161;-33.910;151.156;2023-06-19T17:27:30;10.20;57.50
16114;DHT22;8161;-33.910;151.156;2023-06-19T17:29:57;9.70;1.00
16114;DHT22;8161;-33.910;151.156;2023-06-19T17:32:25;9.60;83.40
16114;DHT22;8161;-33.910;151.156;2023-06-19T17:34:52;9.60;68.80
16114;DHT22;8161;-33.910;151.156;2023-06-19T17:37:19;10.30;97.50
16114;DHT22;8161;-33.910;151.156;2023-06-19T17:39:46;9.80;99.90
16114;DHT22;8161;-33.910;151.156;2023-06-19T17:42:14;10.00;99.90
16114;DHT22;8161;-33.910;151.156;2023-06-19T17:47:08;9.50;99.90
16114;DHT22;8161;-33.910;151.156;2023-06-19T17:49:35;10.00;99.90
16114;DHT22;8161;-33.910;151.156;2023-06-19T17:52:03;9.80;41.30
16114;DHT22;8161;-33.910;151.156;2023-06-19T17:54:31;9.90;99.90
16114;DHT22;8161;-33.910;151.156;2023-06-19T17:56:58;9.40;99.90
16114;DHT22;8161;-33.910;151.156;2023-06-19T17:59:25;10.20;99.90
16114;DHT22;8161;-33.910;151.156;2023-06-19T18:06:48;9.70;99.90
16114;DHT22;8161;-33.910;151.156;2023-06-19T18:11:43;9.90;99.90
16114;DHT22;8161;-33.910;151.156;2023-06-19T18:16:41;9.50;1.00
16114;DHT22;8161;-33.910;151.156;2023-06-19T18:19:09;9.60;1.00
16114;DHT22;8161;-33.910;151.156;2023-06-19T18:21:36;9.50;1.00
16114;DHT22;8161;-33.910;151.156;2023-06-19T18:26:31;10.00;1.00
16114;DHT22;8161;-33.910;151.156;2023-06-19T18:28:58;10.00;1.00
16114;DHT22;8161;-33.910;151.156;2023-06-19T18:31:26;9.90;1.00
16114;DHT22;8161;-33.910;151.156;2023-06-19T18:33:54;9.70;99.90
16114;DHT22;8161;-33.910;151.156;2023-06-19T18:36:22;9.90;99.90
16114;DHT22;8161;-33.910;151.156;2023-06-19T18:38:50;9.50;99.90
16114;DHT22;8161;-33.910;151.156;2023-06-19T18:41:18;9.30;99.90
16114;DHT22;8161;-33.910;151.156;2023-06-19T18:43:45;9.20;1.00
16114;DHT22;8161;-33.910;151.156;2023-06-19T18:53:35;9.30;91.80
16114;DHT22;8161;-33.910;151.156;2023-06-19T18:56:02;9.30;1.00
16114;DHT22;8161;-33.910;151.156;2023-06-19T18:58:30;9.60;99.90
16114;DHT22;8161;-33.910;151.156;2023-06-19T19:00:58;8.80;1.00
16114;DHT22;8161;-33.910;151.156;2023-06-19T19:03:25;9.20;99.90
16114;DHT22;8161;-33.910;151.156;2023-06-19T19:05:53;9.20;99.90
16114;DHT22;8161;-33.910;151.156;2023-06-19T19:18:09;9.40;1.00
16114;DHT22;8161;-33.910;151.156;2023-06-19T19:20:36;9.00;1.00
16114;DHT22;8161;-33.910;151.156;2023-06-19T19:23:03;9.30;1.00
16114;DHT22;8161;-33.910;151.156;2023-06-19T19:25:30;9.10;99.90
16114;DHT22;8161;-33.910;151.156;2023-06-19T19:28:02;9.40;99.90
16114;DHT22;8161;-33.910;151.156;2023-06-19T19:30:37;8.90;99.90
16114;DHT22;8161;-33.910;151.156;2023-06-19T19:33:05;9.70;88.80
16114;DHT22;8161;-33.910;151.156;2023-06-19T19:37:59;9.00;99.90
16114;DHT22;8161;-33.910;151.156;2023-06-19T19:40:26;9.30;99.90
16114;DHT22;8161;-33.910;151.156;2023-06-19T19:42:54;8.80;99.90
16114;DHT22;8161;-33.910;151.156;2023-06-19T19:45:21;9.10;99.90
16114;DHT22;8161;-33.910;151.156;2023-06-19T19:47:48;8.70;99.90